sensor_id;sensor_type;location;lat;lon;timestamp;P1;durP1;ratioP1;P2;durP2;ratioP2
15358;SDS011;7779;49.596;11.070;2022-10-19T00:02:06;20.10;;;2.23;;
15358;SDS011;7779;49.596;11.070;2022-10-19T00:04:32;24.50;;;2.93;;
15358;SDS011;7779;49.596;11.070;2022-10-19T00:06:58;5.07;;;2.03;;
15358;SDS011;7779;49.596;11.070;2022-10-19T00:09:24;22.60;;;2.73;;
15358;SDS011;7779;49.596;11.070;2022-10-19T00:11:50;7.40;;;2.00;;
15358;SDS011;7779;49.596;11.070;2022-10-19T00:14:17;13.13;;;2.10;;
15358;SDS011;7779;49.596;11.070;2022-10-19T00:16:47;7.33;;;1.77;;
15358;SDS011;7779;49.596;11.070;2022-10-19T00:19:20;2.90;;;1.77;;
15358;SDS011;7779;49.596;11.070;2022-10-19T00:21:49;11.33;;;1.90;;
15358;SDS011;7779;49.596;11.070;2022-10-19T00:24:16;10.33;;;1.90;;
15358;SDS011;7779;49.596;11.070;2022-10-19T00:26:42;5.00;;;2.00;;
15358;SDS011;7779;49.596;11.070;2022-10-19T00:29:09;5.67;;;2.03;;
15358;SDS011;7779;49.596;11.070;2022-10-19T00:31:37;7.30;;;1.90;;
15358;SDS011;7779;49.596;11.070;2022-10-19T00:34:03;15.17;;;1.87;;
15358;SDS011;7779;49.596;11.070;2022-10-19T00:36:33;16.03;;;1.80;;
15358;SDS011;7779;49.596;11.070;2022-10-19T00:39:02;1.90;;;1.50;;
15358;SDS011;7779;49.596;11.070;2022-10-19T00:41:31;11.93;;;1.90;;
15358;SDS011;7779;49.596;11.070;2022-10-19T00:44:05;23.47;;;2.50;;
15358;SDS011;7779;49.596;11.070;2022-10-19T00:46:35;19.70;;;2.50;;
15358;SDS011;7779;49.596;11.070;2022-10-19T00:49:08;2.77;;;1.50;;
15358;SDS011;7779;49.596;11.070;2022-10-19T00:51:40;14.20;;;2.07;;
15358;SDS011;7779;49.596;11.070;2022-10-19T00:54:12;17.17;;;2.17;;
15358;SDS011;7779;49.596;11.070;2022-10-19T00:56:40;8.73;;;1.60;;
15358;SDS011;7779;49.596;11.070;2022-10-19T00:59:09;44.43;;;2.47;;
15358;SDS011;7779;49.596;11.070;2022-10-19T01:01:37;12.50;;;1.50;;
15358;SDS011;7779;49.596;11.070;2022-10-19T01:04:03;7.30;;;1.70;;
15358;SDS011;7779;49.596;11.070;2022-10-19T01:06:29;10.23;;;1.50;;
15358;SDS011;7779;49.596;11.070;2022-10-19T01:08:56;4.60;;;1.47;;
15358;SDS011;7779;49.596;11.070;2022-10-19T01:37:33;26.30;;;1.73;;
15358;SDS011;7779;49.596;11.070;2022-10-19T01:40:23;23.20;;;1.90;;
15358;SDS011;7779;49.596;11.070;2022-10-19T01:45:46;20.03;;;1.70;;
15358;SDS011;7779;49.596;11.070;2022-10-19T01:48:23;12.97;;;1.60;;
15358;SDS011;7779;49.596;11.070;2022-10-19T01:50:56;22.37;;;1.70;;
15358;SDS011;7779;49.596;11.070;2022-10-19T01:53:32;3.97;;;1.07;;
15358;SDS011;7779;49.596;11.070;2022-10-19T01:56:04;5.17;;;0.97;;
15358;SDS011;7779;49.596;11.070;2022-10-19T01:58:34;8.10;;;1.10;;
15358;SDS011;7779;49.596;11.070;2022-10-19T02:01:04;12.43;;;1.27;;
15358;SDS011;7779;49.596;11.070;2022-10-19T02:03:34;6.07;;;1.37;;
15358;SDS011;7779;49.596;11.070;2022-10-19T02:06:02;6.77;;;1.00;;
15358;SDS011;7779;49.596;11.070;2022-10-19T02:09:05;31.63;;;2.57;;
15358;SDS011;7779;49.596;11.070;2022-10-19T02:11:24;32.90;;;2.70;;
15358;SDS011;7779;49.596;11.070;2022-10-19T02:13:55;41.23;;;2.07;;
15358;SDS011;7779;49.596;11.070;2022-10-19T02:16:29;19.10;;;1.60;;
15358;SDS011;7779;49.596;11.070;2022-10-19T02:19:08;25.40;;;1.80;;
15358;SDS011;7779;49.596;11.070;2022-10-19T02:21:38;16.67;;;1.30;;
15358;SDS011;7779;49.596;11.070;2022-10-19T02:24:04;23.83;;;1.87;;
15358;SDS011;7779;49.596;11.070;2022-10-19T02:26:30;22.00;;;1.70;;
15358;SDS011;7779;49.596;11.070;2022-10-19T02:28:57;28.40;;;1.80;;
15358;SDS011;7779;49.596;11.070;2022-10-19T02:31:23;41.97;;;2.73;;
15358;SDS011;7779;49.596;11.070;2022-10-19T02:33:50;11.87;;;0.97;;
15358;SDS011;7779;49.596;11.070;2022-10-19T02:36:17;47.70;;;2.83;;
15358;SDS011;7779;49.596;11.070;2022-10-19T02:38:44;39.33;;;2.43;;
15358;SDS011;7779;49.596;11.070;2022-10-19T02:41:17;23.70;;;1.80;;
15358;SDS011;7779;49.596;11.070;2022-10-19T02:44:08;28.20;;;2.10;;
15358;SDS011;7779;49.596;11.070;2022-10-19T02:46:59;27.30;;;2.10;;
15358;SDS011;7779;49.596;11.070;2022-10-19T02:49:47;13.40;;;1.30;;
15358;SDS011;7779;49.596;11.070;2022-10-19T02:52:14;8.40;;;1.30;;
15358;SDS011;7779;49.596;11.070;2022-10-19T02:54:40;25.67;;;1.90;;
15358;SDS011;7779;49.596;11.070;2022-10-19T02:57:15;23.90;;;1.97;;
15358;SDS011;7779;49.596;11.070;2022-10-19T02:59:44;8.17;;;1.03;;
15358;SDS011;7779;49.596;11.070;2022-10-19T03:02:11;16.57;;;1.20;;
15358;SDS011;7779;49.596;11.070;2022-10-19T03:04:38;5.37;;;0.87;;
15358;SDS011;7779;49.596;11.070;2022-10-19T03:07:06;10.93;;;1.00;;
15358;SDS011;7779;49.596;11.070;2022-10-19T03:09:38;0.70;;;0.70;;
15358;SDS011;7779;49.596;11.070;2022-10-19T03:12:05;7.00;;;0.80;;
15358;SDS011;7779;49.596;11.070;2022-10-19T03:14:31;10.87;;;1.20;;
15358;SDS011;7779;49.596;11.070;2022-10-19T03:16:56;7.30;;;0.73;;
15358;SDS011;7779;49.596;11.070;2022-10-19T03:19:22;5.80;;;1.20;;
15358;SDS011;7779;49.596;11.070;2022-10-19T03:21:48;10.97;;;1.77;;
15358;SDS011;7779;49.596;11.070;2022-10-19T03:24:14;14.83;;;1.97;;
15358;SDS011;7779;49.596;11.070;2022-10-19T03:26:40;8.57;;;1.20;;
15358;SDS011;7779;49.596;11.070;2022-10-19T03:29:06;1.50;;;1.20;;
15358;SDS011;7779;49.596;11.070;2022-10-19T03:31:31;9.60;;;1.50;;
15358;SDS011;7779;49.596;11.070;2022-10-19T03:33:57;5.80;;;1.10;;
15358;SDS011;7779;49.596;11.070;2022-10-19T03:36:24;6.30;;;1.10;;
15358;SDS011;7779;49.596;11.070;2022-10-19T03:38:57;1.73;;;1.10;;
15358;SDS011;7779;49.596;11.070;2022-10-19T03:41:29;2.87;;;0.97;;
15358;SDS011;7779;49.596;11.070;2022-10-19T03:43:57;1.50;;;1.20;;
15358;SDS011;7779;49.596;11.070;2022-10-19T03:46:24;3.57;;;1.40;;
15358;SDS011;7779;49.596;11.070;2022-10-19T03:48:50;6.17;;;1.30;;
15358;SDS011;7779;49.596;11.070;2022-10-19T03:51:21;3.73;;;1.20;;
15358;SDS011;7779;49.596;11.070;2022-10-19T03:53:51;3.47;;;1.27;;
15358;SDS011;7779;49.596;11.070;2022-10-19T03:56:25;3.50;;;1.10;;
15358;SDS011;7779;49.596;11.070;2022-10-19T03:58:53;1.23;;;1.13;;
15358;SDS011;7779;49.596;11.070;2022-10-19T04:01:24;2.90;;;1.20;;
15358;SDS011;7779;49.596;11.070;2022-10-19T04:03:57;2.17;;;1.20;;
15358;SDS011;7779;49.596;11.070;2022-10-19T04:06:27;1.10;;;1.00;;
15358;SDS011;7779;49.596;11.070;2022-10-19T04:08:59;1.13;;;1.03;;
15358;SDS011;7779;49.596;11.070;2022-10-19T04:11:25;1.10;;;1.00;;
15358;SDS011;7779;49.596;11.070;2022-10-19T04:13:54;1.63;;;1.37;;
15358;SDS011;7779;49.596;11.070;2022-10-19T04:16:21;3.13;;;1.03;;
15358;SDS011;7779;49.596;11.070;2022-10-19T04:18:50;1.10;;;1.00;;
15358;SDS011;7779;49.596;11.070;2022-10-19T04:21:26;1.00;;;0.90;;
15358;SDS011;7779;49.596;11.070;2022-10-19T04:24:01;3.27;;;1.20;;
15358;SDS011;7779;49.596;11.070;2022-10-19T04:26:31;1.40;;;1.07;;
15358;SDS011;7779;49.596;11.070;2022-10-19T04:28:59;5.43;;;1.13;;
15358;SDS011;7779;49.596;11.070;2022-10-19T04:31:26;1.80;;;1.10;;
15358;SDS011;7779;49.596;11.070;2022-10-19T04:33:53;5.10;;;1.20;;
15358;SDS011;7779;49.596;11.070;2022-10-19T04:36:19;11.67;;;1.20;;
15358;SDS011;7779;49.596;11.070;2022-10-19T04:38:45;1.73;;;1.20;;
15358;SDS011;7779;49.596;11.070;2022-10-19T04:41:12;6.90;;;1.13;;
15358;SDS011;7779;49.596;11.070;2022-10-19T04:43:41;8.50;;;1.63;;
15358;SDS011;7779;49.596;11.070;2022-10-19T04:46:10;13.90;;;1.10;;
15358;SDS011;7779;49.596;11.070;2022-10-19T04:48:41;11.57;;;1.40;;
15358;SDS011;7779;49.596;11.070;2022-10-19T04:51:08;13.70;;;1.80;;
15358;SDS011;7779;49.596;11.070;2022-10-19T04:53:35;30.90;;;2.43;;
15358;SDS011;7779;49.596;11.070;2022-10-19T04:56:03;23.10;;;1.63;;
15358;SDS011;7779;49.596;11.070;2022-10-19T04:58:31;28.93;;;2.47;;
15358;SDS011;7779;49.596;11.070;2022-10-19T05:00:57;32.23;;;2.10;;
15358;SDS011;7779;49.596;11.070;2022-10-19T05:03:23;44.43;;;2.50;;
15358;SDS011;7779;49.596;11.070;2022-10-19T05:05:49;14.63;;;1.67;;
15358;SDS011;7779;49.596;11.070;2022-10-19T05:08:15;16.50;;;1.53;;
15358;SDS011;7779;49.596;11.070;2022-10-19T05:10:41;22.60;;;1.90;;
15358;SDS011;7779;49.596;11.070;2022-10-19T05:13:06;13.50;;;1.60;;
15358;SDS011;7779;49.596;11.070;2022-10-19T05:15:32;8.33;;;1.90;;
15358;SDS011;7779;49.596;11.070;2022-10-19T05:17:58;18.13;;;2.20;;
15358;SDS011;7779;49.596;11.070;2022-10-19T05:20:25;14.83;;;1.97;;
15358;SDS011;7779;49.596;11.070;2022-10-19T05:22:51;6.47;;;1.80;;
15358;SDS011;7779;49.596;11.070;2022-10-19T05:25:17;5.53;;;1.50;;
15358;SDS011;7779;49.596;11.070;2022-10-19T05:27:42;6.00;;;1.70;;
15358;SDS011;7779;49.596;11.070;2022-10-19T05:30:08;3.50;;;1.90;;
15358;SDS011;7779;49.596;11.070;2022-10-19T05:32:34;1.97;;;1.70;;
15358;SDS011;7779;49.596;11.070;2022-10-19T05:35:00;4.93;;;2.00;;
15358;SDS011;7779;49.596;11.070;2022-10-19T05:37:25;4.43;;;1.70;;
15358;SDS011;7779;49.596;11.070;2022-10-19T05:39:53;4.53;;;1.93;;
15358;SDS011;7779;49.596;11.070;2022-10-19T05:42:19;3.33;;;1.77;;
15358;SDS011;7779;49.596;11.070;2022-10-19T05:44:44;9.97;;;1.87;;
15358;SDS011;7779;49.596;11.070;2022-10-19T05:47:10;10.37;;;1.87;;
15358;SDS011;7779;49.596;11.070;2022-10-19T05:49:36;9.27;;;1.50;;
15358;SDS011;7779;49.596;11.070;2022-10-19T05:52:02;10.60;;;1.73;;
15358;SDS011;7779;49.596;11.070;2022-10-19T05:54:28;7.77;;;2.03;;
15358;SDS011;7779;49.596;11.070;2022-10-19T05:56:53;7.07;;;1.50;;
15358;SDS011;7779;49.596;11.070;2022-10-19T05:59:20;15.03;;;1.90;;
15358;SDS011;7779;49.596;11.070;2022-10-19T06:01:47;12.60;;;1.83;;
15358;SDS011;7779;49.596;11.070;2022-10-19T06:04:13;8.03;;;1.80;;
15358;SDS011;7779;49.596;11.070;2022-10-19T06:06:39;14.57;;;2.27;;
15358;SDS011;7779;49.596;11.070;2022-10-19T06:09:08;7.43;;;2.07;;
15358;SDS011;7779;49.596;11.070;2022-10-19T06:11:36;12.73;;;2.30;;
15358;SDS011;7779;49.596;11.070;2022-10-19T06:14:05;8.43;;;2.23;;
15358;SDS011;7779;49.596;11.070;2022-10-19T06:16:36;13.43;;;2.20;;
15358;SDS011;7779;49.596;11.070;2022-10-19T06:19:02;16.40;;;2.23;;
15358;SDS011;7779;49.596;11.070;2022-10-19T06:21:29;16.43;;;1.80;;
15358;SDS011;7779;49.596;11.070;2022-10-19T06:23:57;22.30;;;2.10;;
15358;SDS011;7779;49.596;11.070;2022-10-19T06:26:26;4.37;;;1.60;;
15358;SDS011;7779;49.596;11.070;2022-10-19T06:28:55;12.70;;;2.50;;
15358;SDS011;7779;49.596;11.070;2022-10-19T06:31:24;23.90;;;2.20;;
15358;SDS011;7779;49.596;11.070;2022-10-19T06:33:55;9.37;;;1.63;;
15358;SDS011;7779;49.596;11.070;2022-10-19T06:36:22;20.10;;;1.90;;
15358;SDS011;7779;49.596;11.070;2022-10-19T06:38:51;24.97;;;1.97;;
15358;SDS011;7779;49.596;11.070;2022-10-19T06:41:18;7.77;;;1.60;;
15358;SDS011;7779;49.596;11.070;2022-10-19T06:43:51;11.43;;;1.47;;
15358;SDS011;7779;49.596;11.070;2022-10-19T06:46:19;13.57;;;1.30;;
15358;SDS011;7779;49.596;11.070;2022-10-19T06:48:55;13.17;;;1.77;;
15358;SDS011;7779;49.596;11.070;2022-10-19T06:51:26;4.70;;;1.00;;
15358;SDS011;7779;49.596;11.070;2022-10-19T06:53:54;3.70;;;1.10;;
15358;SDS011;7779;49.596;11.070;2022-10-19T06:56:20;6.40;;;0.90;;
15358;SDS011;7779;49.596;11.070;2022-10-19T06:58:46;6.37;;;1.00;;
15358;SDS011;7779;49.596;11.070;2022-10-19T07:01:12;3.47;;;0.90;;
15358;SDS011;7779;49.596;11.070;2022-10-19T07:03:38;1.93;;;1.10;;
15358;SDS011;7779;49.596;11.070;2022-10-19T07:06:08;4.23;;;0.97;;
15358;SDS011;7779;49.596;11.070;2022-10-19T07:08:37;1.43;;;1.00;;
15358;SDS011;7779;49.596;11.070;2022-10-19T07:11:06;2.17;;;0.93;;
15358;SDS011;7779;49.596;11.070;2022-10-19T07:13:35;4.70;;;1.00;;
15358;SDS011;7779;49.596;11.070;2022-10-19T07:16:03;23.17;;;1.70;;
15358;SDS011;7779;49.596;11.070;2022-10-19T07:18:32;8.03;;;1.07;;
15358;SDS011;7779;49.596;11.070;2022-10-19T07:21:00;5.77;;;1.00;;
15358;SDS011;7779;49.596;11.070;2022-10-19T07:23:30;9.10;;;1.57;;
15358;SDS011;7779;49.596;11.070;2022-10-19T07:25:58;4.50;;;1.10;;
15358;SDS011;7779;49.596;11.070;2022-10-19T07:28:39;5.00;;;1.10;;
15358;SDS011;7779;49.596;11.070;2022-10-19T07:31:08;10.53;;;1.20;;
15358;SDS011;7779;49.596;11.070;2022-10-19T07:33:44;7.67;;;0.90;;
15358;SDS011;7779;49.596;11.070;2022-10-19T07:36:11;1.87;;;0.80;;
15358;SDS011;7779;49.596;11.070;2022-10-19T07:38:38;12.80;;;1.37;;
15358;SDS011;7779;49.596;11.070;2022-10-19T07:41:08;6.30;;;1.10;;
15358;SDS011;7779;49.596;11.070;2022-10-19T07:43:37;7.17;;;1.27;;
15358;SDS011;7779;49.596;11.070;2022-10-19T07:46:05;6.30;;;1.23;;
15358;SDS011;7779;49.596;11.070;2022-10-19T07:48:40;2.77;;;1.33;;
15358;SDS011;7779;49.596;11.070;2022-10-19T07:51:07;1.90;;;1.40;;
15358;SDS011;7779;49.596;11.070;2022-10-19T07:53:35;3.83;;;1.47;;
15358;SDS011;7779;49.596;11.070;2022-10-19T07:56:05;17.30;;;2.17;;
15358;SDS011;7779;49.596;11.070;2022-10-19T07:58:40;6.77;;;1.90;;
15358;SDS011;7779;49.596;11.070;2022-10-19T08:01:08;10.00;;;1.93;;
15358;SDS011;7779;49.596;11.070;2022-10-19T08:03:37;8.60;;;2.33;;
15358;SDS011;7779;49.596;11.070;2022-10-19T08:06:04;12.43;;;2.37;;
15358;SDS011;7779;49.596;11.070;2022-10-19T08:08:33;9.93;;;2.60;;
15358;SDS011;7779;49.596;11.070;2022-10-19T08:11:06;11.07;;;2.83;;
15358;SDS011;7779;49.596;11.070;2022-10-19T08:13:33;14.53;;;3.23;;
15358;SDS011;7779;49.596;11.070;2022-10-19T08:15:59;10.63;;;2.90;;
15358;SDS011;7779;49.596;11.070;2022-10-19T08:18:24;8.73;;;2.73;;
15358;SDS011;7779;49.596;11.070;2022-10-19T08:20:50;8.23;;;2.33;;
15358;SDS011;7779;49.596;11.070;2022-10-19T08:23:16;10.07;;;2.50;;
15358;SDS011;7779;49.596;11.070;2022-10-19T08:25:42;7.30;;;2.83;;
15358;SDS011;7779;49.596;11.070;2022-10-19T08:28:08;6.57;;;2.93;;
15358;SDS011;7779;49.596;11.070;2022-10-19T08:30:34;3.87;;;2.60;;
15358;SDS011;7779;49.596;11.070;2022-10-19T08:33:01;5.33;;;2.60;;
15358;SDS011;7779;49.596;11.070;2022-10-19T08:35:29;3.23;;;2.67;;
15358;SDS011;7779;49.596;11.070;2022-10-19T08:37:55;3.13;;;2.80;;
15358;SDS011;7779;49.596;11.070;2022-10-19T08:40:24;3.67;;;2.60;;
15358;SDS011;7779;49.596;11.070;2022-10-19T08:45:47;3.20;;;2.90;;
15358;SDS011;7779;49.596;11.070;2022-10-19T08:48:45;3.40;;;2.70;;
15358;SDS011;7779;49.596;11.070;2022-10-19T08:51:11;3.50;;;3.10;;
15358;SDS011;7779;49.596;11.070;2022-10-19T08:56:14;3.87;;;3.37;;
15358;SDS011;7779;49.596;11.070;2022-10-19T09:02:20;3.87;;;3.37;;
15358;SDS011;7779;49.596;11.070;2022-10-19T09:05:33;3.70;;;3.30;;
15358;SDS011;7779;49.596;11.070;2022-10-19T09:08:13;3.60;;;3.30;;
15358;SDS011;7779;49.596;11.070;2022-10-19T09:10:42;3.43;;;3.13;;
15358;SDS011;7779;49.596;11.070;2022-10-19T09:15:47;4.07;;;3.53;;
15358;SDS011;7779;49.596;11.070;2022-10-19T09:18:26;4.73;;;3.73;;
15358;SDS011;7779;49.596;11.070;2022-10-19T09:23:39;4.13;;;3.70;;
15358;SDS011;7779;49.596;11.070;2022-10-19T09:26:19;5.17;;;3.60;;
15358;SDS011;7779;49.596;11.070;2022-10-19T09:31:39;4.87;;;4.27;;
15358;SDS011;7779;49.596;11.070;2022-10-19T09:34:18;5.10;;;4.13;;
15358;SDS011;7779;49.596;11.070;2022-10-19T09:36:54;5.37;;;3.97;;
15358;SDS011;7779;49.596;11.070;2022-10-19T09:39:22;5.10;;;4.30;;
15358;SDS011;7779;49.596;11.070;2022-10-19T09:41:51;6.23;;;5.00;;
15358;SDS011;7779;49.596;11.070;2022-10-19T09:44:21;6.23;;;4.93;;
15358;SDS011;7779;49.596;11.070;2022-10-19T09:47:06;5.30;;;4.27;;
15358;SDS011;7779;49.596;11.070;2022-10-19T09:50:04;5.23;;;4.60;;
15358;SDS011;7779;49.596;11.070;2022-10-19T09:52:50;6.20;;;4.77;;
15358;SDS011;7779;49.596;11.070;2022-10-19T09:58:30;6.27;;;5.10;;
15358;SDS011;7779;49.596;11.070;2022-10-19T10:00:57;5.97;;;4.90;;
15358;SDS011;7779;49.596;11.070;2022-10-19T10:06:01;5.83;;;5.23;;
15358;SDS011;7779;49.596;11.070;2022-10-19T10:08:37;6.87;;;5.47;;
15358;SDS011;7779;49.596;11.070;2022-10-19T10:11:29;7.10;;;5.33;;
15358;SDS011;7779;49.596;11.070;2022-10-19T10:14:04;7.60;;;6.00;;
15358;SDS011;7779;49.596;11.070;2022-10-19T10:16:45;7.67;;;6.17;;
15358;SDS011;7779;49.596;11.070;2022-10-19T10:19:12;7.03;;;5.77;;
15358;SDS011;7779;49.596;11.070;2022-10-19T10:21:51;8.23;;;6.47;;
15358;SDS011;7779;49.596;11.070;2022-10-19T10:24:26;6.07;;;5.47;;
15358;SDS011;7779;49.596;11.070;2022-10-19T10:26:56;9.50;;;6.17;;
15358;SDS011;7779;49.596;11.070;2022-10-19T10:29:25;7.80;;;6.03;;
15358;SDS011;7779;49.596;11.070;2022-10-19T10:32:02;8.00;;;6.10;;
15358;SDS011;7779;49.596;11.070;2022-10-19T10:37:41;7.80;;;6.00;;
15358;SDS011;7779;49.596;11.070;2022-10-19T10:40:23;6.87;;;5.93;;
15358;SDS011;7779;49.596;11.070;2022-10-19T10:42:55;9.30;;;6.10;;
15358;SDS011;7779;49.596;11.070;2022-10-19T10:50:58;7.33;;;6.33;;
15358;SDS011;7779;49.596;11.070;2022-10-19T10:56:20;6.60;;;5.97;;
15358;SDS011;7779;49.596;11.070;2022-10-19T11:01:22;8.37;;;6.17;;
15358;SDS011;7779;49.596;11.070;2022-10-19T11:03:59;7.60;;;6.33;;
15358;SDS011;7779;49.596;11.070;2022-10-19T11:06:48;9.53;;;5.77;;
15358;SDS011;7779;49.596;11.070;2022-10-19T11:12:08;6.73;;;6.03;;
15358;SDS011;7779;49.596;11.070;2022-10-19T11:17:26;6.30;;;5.37;;
15358;SDS011;7779;49.596;11.070;2022-10-19T11:19:56;9.67;;;6.67;;
15358;SDS011;7779;49.596;11.070;2022-10-19T11:22:31;10.17;;;8.33;;
15358;SDS011;7779;49.596;11.070;2022-10-19T11:25:21;9.73;;;8.00;;
15358;SDS011;7779;49.596;11.070;2022-10-19T11:28:21;7.40;;;6.47;;
15358;SDS011;7779;49.596;11.070;2022-10-19T11:31:21;7.53;;;5.83;;
15358;SDS011;7779;49.596;11.070;2022-10-19T11:40:07;6.97;;;5.93;;
15358;SDS011;7779;49.596;11.070;2022-10-19T11:45:37;7.27;;;5.97;;
15358;SDS011;7779;49.596;11.070;2022-10-19T11:57:12;7.67;;;6.00;;
15358;SDS011;7779;49.596;11.070;2022-10-19T12:00:29;6.50;;;4.97;;
15358;SDS011;7779;49.596;11.070;2022-10-19T12:05:59;6.13;;;5.50;;
15358;SDS011;7779;49.596;11.070;2022-10-19T12:11:53;6.03;;;5.43;;
15358;SDS011;7779;49.596;11.070;2022-10-19T12:14:36;6.47;;;4.80;;
15358;SDS011;7779;49.596;11.070;2022-10-19T12:17:13;7.87;;;5.93;;
15358;SDS011;7779;49.596;11.070;2022-10-19T12:19:47;5.93;;;5.20;;
15358;SDS011;7779;49.596;11.070;2022-10-19T12:22:23;5.90;;;5.07;;
15358;SDS011;7779;49.596;11.070;2022-10-19T12:24:53;5.80;;;5.20;;
15358;SDS011;7779;49.596;11.070;2022-10-19T12:27:28;6.40;;;5.80;;
15358;SDS011;7779;49.596;11.070;2022-10-19T12:30:05;6.17;;;5.53;;
15358;SDS011;7779;49.596;11.070;2022-10-19T12:33:08;5.93;;;5.33;;
15358;SDS011;7779;49.596;11.070;2022-10-19T12:38:41;6.40;;;5.13;;
15358;SDS011;7779;49.596;11.070;2022-10-19T12:41:50;6.57;;;5.17;;
15358;SDS011;7779;49.596;11.070;2022-10-19T12:47:19;5.73;;;4.70;;
15358;SDS011;7779;49.596;11.070;2022-10-19T12:49:51;5.53;;;4.97;;
15358;SDS011;7779;49.596;11.070;2022-10-19T12:57:54;5.43;;;4.30;;
15358;SDS011;7779;49.596;11.070;2022-10-19T13:00:25;4.60;;;4.10;;
15358;SDS011;7779;49.596;11.070;2022-10-19T13:03:04;4.00;;;3.53;;
15358;SDS011;7779;49.596;11.070;2022-10-19T13:05:39;4.37;;;3.97;;
15358;SDS011;7779;49.596;11.070;2022-10-19T13:08:06;3.87;;;3.53;;
15358;SDS011;7779;49.596;11.070;2022-10-19T13:10:32;4.20;;;3.80;;
15358;SDS011;7779;49.596;11.070;2022-10-19T13:13:01;4.13;;;3.70;;
15358;SDS011;7779;49.596;11.070;2022-10-19T13:17:59;4.37;;;3.97;;
15358;SDS011;7779;49.596;11.070;2022-10-19T13:21:05;4.07;;;3.67;;
15358;SDS011;7779;49.596;11.070;2022-10-19T13:28:55;4.70;;;3.93;;
15358;SDS011;7779;49.596;11.070;2022-10-19T13:31:23;5.17;;;4.03;;
15358;SDS011;7779;49.596;11.070;2022-10-19T13:33:52;4.47;;;3.70;;
15358;SDS011;7779;49.596;11.070;2022-10-19T13:36:19;4.17;;;3.73;;
15358;SDS011;7779;49.596;11.070;2022-10-19T13:41:17;3.57;;;3.27;;
15358;SDS011;7779;49.596;11.070;2022-10-19T13:44:02;4.07;;;3.67;;
15358;SDS011;7779;49.596;11.070;2022-10-19T13:50:05;2.97;;;2.70;;
15358;SDS011;7779;49.596;11.070;2022-10-19T13:55:57;3.13;;;2.70;;
15358;SDS011;7779;49.596;11.070;2022-10-19T13:58:55;4.30;;;3.10;;
15358;SDS011;7779;49.596;11.070;2022-10-19T14:05:05;3.50;;;3.10;;
15358;SDS011;7779;49.596;11.070;2022-10-19T14:10:56;3.33;;;3.03;;
15358;SDS011;7779;49.596;11.070;2022-10-19T14:13:27;3.57;;;3.10;;
15358;SDS011;7779;49.596;11.070;2022-10-19T14:15:54;3.73;;;2.90;;
15358;SDS011;7779;49.596;11.070;2022-10-19T14:21:05;4.27;;;3.10;;
15358;SDS011;7779;49.596;11.070;2022-10-19T14:23:34;4.57;;;3.20;;
15358;SDS011;7779;49.596;11.070;2022-10-19T14:26:06;6.27;;;3.30;;
15358;SDS011;7779;49.596;11.070;2022-10-19T14:28:49;3.37;;;3.00;;
15358;SDS011;7779;49.596;11.070;2022-10-19T14:31:21;3.33;;;3.03;;
15358;SDS011;7779;49.596;11.070;2022-10-19T14:33:50;4.30;;;3.53;;
15358;SDS011;7779;49.596;11.070;2022-10-19T14:36:24;3.13;;;2.83;;
15358;SDS011;7779;49.596;11.070;2022-10-19T14:38:59;3.13;;;2.83;;
15358;SDS011;7779;49.596;11.070;2022-10-19T14:43:50;3.33;;;3.03;;
15358;SDS011;7779;49.596;11.070;2022-10-19T14:46:16;3.70;;;3.00;;
15358;SDS011;7779;49.596;11.070;2022-10-19T14:48:45;3.83;;;3.47;;
15358;SDS011;7779;49.596;11.070;2022-10-19T15:02:17;3.60;;;3.27;;
15358;SDS011;7779;49.596;11.070;2022-10-19T15:04:58;3.70;;;2.87;;
15358;SDS011;7779;49.596;11.070;2022-10-19T15:07:37;3.33;;;2.90;;
15358;SDS011;7779;49.596;11.070;2022-10-19T15:10:17;3.30;;;3.00;;
15358;SDS011;7779;49.596;11.070;2022-10-19T15:12:56;3.47;;;3.03;;
15358;SDS011;7779;49.596;11.070;2022-10-19T15:15:29;3.37;;;2.70;;
15358;SDS011;7779;49.596;11.070;2022-10-19T15:22:56;3.40;;;3.10;;
15358;SDS011;7779;49.596;11.070;2022-10-19T15:25:24;3.63;;;3.10;;
15358;SDS011;7779;49.596;11.070;2022-10-19T15:30:57;3.03;;;2.77;;
15358;SDS011;7779;49.596;11.070;2022-10-19T15:33:52;3.37;;;3.07;;
15358;SDS011;7779;49.596;11.070;2022-10-19T15:36:24;3.47;;;2.80;;
15358;SDS011;7779;49.596;11.070;2022-10-19T15:39:02;3.07;;;2.80;;
15358;SDS011;7779;49.596;11.070;2022-10-19T15:41:33;3.73;;;3.40;;
15358;SDS011;7779;49.596;11.070;2022-10-19T15:44:02;3.70;;;3.10;;
15358;SDS011;7779;49.596;11.070;2022-10-19T15:46:57;3.53;;;3.10;;
15358;SDS011;7779;49.596;11.070;2022-10-19T15:52:17;6.73;;;3.30;;
15358;SDS011;7779;49.596;11.070;2022-10-19T15:54:46;3.77;;;3.10;;
15358;SDS011;7779;49.596;11.070;2022-10-19T15:59:58;3.40;;;3.10;;
15358;SDS011;7779;49.596;11.070;2022-10-19T16:02:31;3.97;;;3.57;;
15358;SDS011;7779;49.596;11.070;2022-10-19T16:04:56;4.20;;;3.80;;
15358;SDS011;7779;49.596;11.070;2022-10-19T16:07:26;7.17;;;4.53;;
15358;SDS011;7779;49.596;11.070;2022-10-19T16:09:55;7.50;;;3.93;;
15358;SDS011;7779;49.596;11.070;2022-10-19T16:12:22;4.37;;;3.97;;
15358;SDS011;7779;49.596;11.070;2022-10-19T16:14:50;4.90;;;4.40;;
15358;SDS011;7779;49.596;11.070;2022-10-19T16:17:17;5.80;;;4.50;;
15358;SDS011;7779;49.596;11.070;2022-10-19T16:19:43;5.40;;;4.37;;
15358;SDS011;7779;49.596;11.070;2022-10-19T16:22:11;5.17;;;4.20;;
15358;SDS011;7779;49.596;11.070;2022-10-19T16:24:38;4.83;;;4.33;;
15358;SDS011;7779;49.596;11.070;2022-10-19T16:27:04;5.13;;;4.00;;
15358;SDS011;7779;49.596;11.070;2022-10-19T16:29:31;5.53;;;4.47;;
15358;SDS011;7779;49.596;11.070;2022-10-19T16:31:57;5.80;;;4.60;;
15358;SDS011;7779;49.596;11.070;2022-10-19T16:34:23;5.27;;;4.77;;
15358;SDS011;7779;49.596;11.070;2022-10-19T16:36:49;6.97;;;4.90;;
15358;SDS011;7779;49.596;11.070;2022-10-19T16:39:14;6.60;;;4.30;;
15358;SDS011;7779;49.596;11.070;2022-10-19T16:41:40;5.07;;;4.53;;
15358;SDS011;7779;49.596;11.070;2022-10-19T16:44:08;4.87;;;4.00;;
15358;SDS011;7779;49.596;11.070;2022-10-19T16:46:36;5.03;;;4.53;;
15358;SDS011;7779;49.596;11.070;2022-10-19T16:49:02;6.07;;;4.90;;
15358;SDS011;7779;49.596;11.070;2022-10-19T16:51:33;6.07;;;4.77;;
15358;SDS011;7779;49.596;11.070;2022-10-19T16:54:01;5.13;;;4.60;;
15358;SDS011;7779;49.596;11.070;2022-10-19T16:56:28;5.23;;;4.73;;
15358;SDS011;7779;49.596;11.070;2022-10-19T16:58:56;5.00;;;3.90;;
15358;SDS011;7779;49.596;11.070;2022-10-19T17:01:26;4.17;;;3.77;;
15358;SDS011;7779;49.596;11.070;2022-10-19T17:03:54;4.20;;;3.80;;
15358;SDS011;7779;49.596;11.070;2022-10-19T17:06:21;4.33;;;3.40;;
15358;SDS011;7779;49.596;11.070;2022-10-19T17:08:47;4.73;;;3.80;;
15358;SDS011;7779;49.596;11.070;2022-10-19T17:11:15;4.43;;;3.40;;
15358;SDS011;7779;49.596;11.070;2022-10-19T17:13:53;4.40;;;3.07;;
15358;SDS011;7779;49.596;11.070;2022-10-19T17:16:22;4.37;;;3.50;;
15358;SDS011;7779;49.596;11.070;2022-10-19T17:18:52;4.27;;;3.23;;
15358;SDS011;7779;49.596;11.070;2022-10-19T17:21:21;4.10;;;3.30;;
15358;SDS011;7779;49.596;11.070;2022-10-19T17:23:51;4.63;;;3.00;;
15358;SDS011;7779;49.596;11.070;2022-10-19T17:26:27;3.10;;;2.70;;
15358;SDS011;7779;49.596;11.070;2022-10-19T17:29:03;3.87;;;3.20;;
15358;SDS011;7779;49.596;11.070;2022-10-19T17:31:30;4.63;;;3.00;;
15358;SDS011;7779;49.596;11.070;2022-10-19T17:33:57;5.30;;;3.33;;
15358;SDS011;7779;49.596;11.070;2022-10-19T17:36:25;3.20;;;2.90;;
15358;SDS011;7779;49.596;11.070;2022-10-19T17:38:55;6.33;;;3.27;;
15358;SDS011;7779;49.596;11.070;2022-10-19T17:41:23;3.30;;;3.00;;
15358;SDS011;7779;49.596;11.070;2022-10-19T17:43:50;3.83;;;3.30;;
15358;SDS011;7779;49.596;11.070;2022-10-19T17:46:18;3.63;;;3.30;;
15358;SDS011;7779;49.596;11.070;2022-10-19T17:48:49;5.47;;;4.47;;
15358;SDS011;7779;49.596;11.070;2022-10-19T17:51:17;5.40;;;4.70;;